createdAt,value
2024-02-01T00:01:16.449Z,303.46
2024-02-01T00:04:25.582Z,291.22
2024-02-01T00:07:31.308Z,283.54
2024-02-01T00:10:37.777Z,272.80
2024-02-01T00:13:43.461Z,270.15
2024-02-01T00:16:50.025Z,255.25
2024-02-01T00:19:58.412Z,245.36
2024-02-01T00:23:04.943Z,246.25
2024-02-01T00:26:10.671Z,238.28
2024-02-01T00:29:17.167Z,231.26
2024-02-01T00:32:22.843Z,231.54
2024-02-01T00:35:32.014Z,238.12
2024-02-01T00:38:38.236Z,229.93
2024-02-01T00:41:44.835Z,229.65
2024-02-01T00:44:50.614Z,232.68
2024-02-01T00:47:57.349Z,222.05
2024-02-01T00:51:07.825Z,218.43
2024-02-01T00:54:14.465Z,218.53
2024-02-01T00:57:20.304Z,220.73
2024-02-01T01:00:26.995Z,228.34
2024-02-01T01:03:33.066Z,221.67
2024-02-01T01:06:42.372Z,227.44
2024-02-01T01:09:48.192Z,222.61
2024-02-01T01:12:54.792Z,223.67
2024-02-01T01:16:00.532Z,226.38
2024-02-01T01:19:07.388Z,225.53
2024-02-01T01:22:15.863Z,221.59
2024-02-01T01:25:22.746Z,223.32
2024-02-01T01:28:28.459Z,218.02
2024-02-01T01:31:35.225Z,249.03
2024-02-01T01:34:40.935Z,226.02
2024-02-01T01:37:50.100Z,216.81
2024-02-01T01:40:55.752Z,209.43
2024-02-01T01:44:02.446Z,218.74
2024-02-01T01:47:09.009Z,224.11
2024-02-01T01:50:16.266Z,225.82
2024-02-01T01:53:26.159Z,222.48
2024-02-01T01:56:33.410Z,229.69
2024-02-01T01:59:39.425Z,223.05
2024-02-01T02:02:47.879Z,219.09
2024-02-01T02:05:53.895Z,215.38
2024-02-01T02:09:04.372Z,219.48
2024-02-01T02:12:12.149Z,213.26
2024-02-01T02:15:18.819Z,213.65
2024-02-01T02:18:24.658Z,210.73
2024-02-01T02:21:34.672Z,213.61
2024-02-01T02:24:43.198Z,211.93
2024-02-01T02:27:49.784Z,207.20
2024-02-01T02:30:57.355Z,212.06
2024-02-01T02:34:03.976Z,214.34
2024-02-01T02:37:10.240Z,212.12
2024-02-01T02:40:21.958Z,207.24
2024-02-01T02:43:27.619Z,202.46
2024-02-01T02:46:34.786Z,203.02
2024-02-01T02:49:40.541Z,207.90
2024-02-01T02:52:48.851Z,207.94
2024-02-01T02:55:57.346Z,203.40
2024-02-01T02:59:03.899Z,207.33
2024-02-01T03:02:10.407Z,200.57
2024-02-01T03:05:17.064Z,199.08
2024-02-01T03:08:23.051Z,197.79
2024-02-01T03:11:32.418Z,197.44
2024-02-01T03:14:40.981Z,188.31
2024-02-01T03:17:47.700Z,197.94
2024-02-01T03:20:53.508Z,196.15
2024-02-01T03:24:02.478Z,189.02
2024-02-01T03:27:13.691Z,195.64
2024-02-01T03:30:21.415Z,191.39
2024-02-01T03:33:27.347Z,190.31
2024-02-01T03:36:34.334Z,189.50
2024-02-01T03:39:40.119Z,185.91
2024-02-01T03:42:49.587Z,189.81
2024-02-01T03:45:55.208Z,191.22
2024-02-01T03:49:01.920Z,189.95
2024-02-01T03:52:09.125Z,186.90
2024-02-01T03:55:21.626Z,196.17
2024-02-01T03:58:30.266Z,192.29
2024-02-01T04:01:36.915Z,190.22
2024-02-01T04:04:46.646Z,192.76
2024-02-01T04:07:53.388Z,197.93
2024-02-01T04:10:59.670Z,200.68
2024-02-01T04:14:08.864Z,203.05
2024-02-01T04:17:14.652Z,205.16
2024-02-01T04:20:21.660Z,207.27
2024-02-01T04:23:27.353Z,209.83
2024-02-01T04:26:33.996Z,216.38
2024-02-01T04:29:42.335Z,214.34
2024-02-01T04:32:50.002Z,212.35
2024-02-01T04:35:56.005Z,211.33
2024-02-01T04:39:05.026Z,213.91
2024-02-01T04:42:19.347Z,207.48
2024-02-01T04:45:28.564Z,215.80
2024-02-01T04:48:35.659Z,213.09
2024-02-01T04:51:43.865Z,214.30
2024-02-01T04:54:49.729Z,221.69
2024-02-01T04:57:56.178Z,219.43
2024-02-01T05:01:11.997Z,221.19
2024-02-01T05:04:20.458Z,230.37
2024-02-01T05:07:26.253Z,238.25
2024-02-01T05:10:33.783Z,242.73
2024-02-01T05:13:39.604Z,248.86
2024-02-01T05:16:50.527Z,239.57
2024-02-01T05:20:00.647Z,230.24
2024-02-01T05:23:07.813Z,226.97
2024-02-01T05:26:15.335Z,228.02
2024-02-01T05:29:23.338Z,226.35
2024-02-01T05:32:31.793Z,227.56
2024-02-01T05:35:38.510Z,230.18
2024-02-01T05:38:44.481Z,230.99
2024-02-01T05:41:51.408Z,241.66
2024-02-01T05:44:57.022Z,260.16
2024-02-01T05:48:06.306Z,290.55
2024-02-01T05:51:12.124Z,332.22
2024-02-01T05:54:19.331Z,305.84
2024-02-01T05:57:25.128Z,279.45
2024-02-01T06:00:31.784Z,272.61
2024-02-01T06:03:40.165Z,264.71
2024-02-01T06:06:49.904Z,255.02
2024-02-01T06:09:56.189Z,258.16
2024-02-01T06:13:02.650Z,254.01
2024-02-01T06:16:10.719Z,263.68
2024-02-01T06:19:20.230Z,260.71
2024-02-01T06:22:26.080Z,255.26
2024-02-01T06:25:32.652Z,257.84
2024-02-01T06:28:38.497Z,259.01
2024-02-01T06:31:45.006Z,256.71
2024-02-01T06:34:55.929Z,265.54
2024-02-01T06:38:17.209Z,261.29
2024-02-01T06:41:29.791Z,260.07
2024-02-01T06:44:45.346Z,266.09
2024-02-01T06:47:52.312Z,271.40
2024-02-01T06:51:11.946Z,271.14
2024-02-01T06:54:40.113Z,264.63
2024-02-01T06:57:46.680Z,282.84
2024-02-01T07:01:03.992Z,292.01
2024-02-01T07:04:18.010Z,299.46
2024-02-01T07:07:31.289Z,301.64
2024-02-01T07:10:44.930Z,299.11
2024-02-01T07:13:59.725Z,301.65
2024-02-01T07:17:28.689Z,298.39
2024-02-01T07:20:48.630Z,310.97
2024-02-01T07:24:08.907Z,310.56
2024-02-01T07:27:29.252Z,313.18
2024-02-01T07:30:48.185Z,301.11
2024-02-01T07:34:06.886Z,304.52
2024-02-01T07:37:25.823Z,312.45
2024-02-01T07:40:46.630Z,311.49
2024-02-01T07:44:05.598Z,303.82
2024-02-01T07:47:23.746Z,305.26
2024-02-01T07:50:42.628Z,301.28
2024-02-01T07:54:00.850Z,304.92
2024-02-01T07:57:23.498Z,305.52
2024-02-01T08:00:35.679Z,315.03
2024-02-01T08:04:03.377Z,299.61
2024-02-01T08:07:21.680Z,304.64
2024-02-01T08:10:28.376Z,314.71
2024-02-01T08:13:36.912Z,305.52
2024-02-01T08:16:44.602Z,323.74
2024-02-01T08:19:50.583Z,310.92
2024-02-01T08:22:57.206Z,351.92
2024-02-01T08:26:04.487Z,309.30
2024-02-01T08:29:15.671Z,299.00
2024-02-01T08:32:21.581Z,297.93
2024-02-01T08:35:28.286Z,276.94
2024-02-01T08:38:35.716Z,284.32
2024-02-01T08:41:43.974Z,270.40
2024-02-01T08:44:52.253Z,257.47
2024-02-01T08:48:02.765Z,259.16
2024-02-01T08:51:09.746Z,253.58
2024-02-01T08:54:16.662Z,256.04
2024-02-01T08:57:23.218Z,281.16
2024-02-01T09:00:33.784Z,272.69
2024-02-01T09:03:40.999Z,256.32
2024-02-01T09:06:56.801Z,258.86
2024-02-01T09:10:11.287Z,255.15
2024-02-01T09:13:25.701Z,251.24
2024-02-01T09:16:34.669Z,248.38
2024-02-01T09:19:43.024Z,242.03
2024-02-01T09:22:50.414Z,244.63
2024-02-01T09:25:57.018Z,246.01
2024-02-01T09:29:13.099Z,265.33
2024-02-01T09:32:23.935Z,255.36
2024-02-01T09:35:29.699Z,259.94
2024-02-01T09:38:36.272Z,260.80
2024-02-01T09:41:42.481Z,262.33
2024-02-01T09:44:49.688Z,260.60
2024-02-01T09:47:59.473Z,256.29
2024-02-01T09:51:06.103Z,257.84
2024-02-01T09:54:13.858Z,249.07
2024-02-01T09:57:20.998Z,238.49
2024-02-01T10:00:29.274Z,236.91
2024-02-01T10:03:38.629Z,235.87
2024-02-01T10:06:44.519Z,233.03
2024-02-01T10:09:53.663Z,239.87
2024-02-01T10:13:00.345Z,279.98
2024-02-01T10:16:14.881Z,338.40
2024-02-01T10:19:23.944Z,339.19
2024-02-01T10:22:34.000Z,347.55
2024-02-01T10:25:43.949Z,291.30
2024-02-01T10:28:51.920Z,337.87
2024-02-01T10:32:09.146Z,370.77
2024-02-01T10:35:23.640Z,385.34
2024-02-01T10:38:31.451Z,381.63
2024-02-01T10:41:49.921Z,245.40
2024-02-01T10:45:01.546Z,246.12
2024-02-01T10:48:16.330Z,245.15
2024-02-01T10:51:28.070Z,225.69
2024-02-01T10:54:38.789Z,247.48
2024-02-01T10:57:47.525Z,277.11
2024-02-01T11:00:57.327Z,266.38
2024-02-01T11:04:12.725Z,272.05
2024-02-01T11:07:29.596Z,290.14
2024-02-01T11:10:36.261Z,280.25
2024-02-01T11:13:43.798Z,278.56
2024-02-01T11:16:53.300Z,282.31
2024-02-01T11:20:00.326Z,276.42
2024-02-01T11:23:12.434Z,264.99
2024-02-01T11:26:21.013Z,273.64
2024-02-01T11:29:36.696Z,294.93
2024-02-01T11:32:48.450Z,295.43
2024-02-01T11:35:54.824Z,311.30
2024-02-01T11:39:04.254Z,319.85
2024-02-01T11:42:17.133Z,315.18
2024-02-01T11:45:27.752Z,323.86
2024-02-01T11:48:34.187Z,316.48
2024-02-01T11:51:42.133Z,295.14
2024-02-01T11:54:55.372Z,281.39
2024-02-01T11:58:02.768Z,262.49
2024-02-01T12:01:13.241Z,253.62
2024-02-01T12:04:26.896Z,244.35
2024-02-01T12:07:32.934Z,235.76
2024-02-01T12:10:48.031Z,223.20
2024-02-01T12:13:56.217Z,219.99
2024-02-01T12:17:05.467Z,212.06
2024-02-01T12:20:14.102Z,214.47
2024-02-01T12:23:21.309Z,218.80
2024-02-01T12:26:31.621Z,233.26
2024-02-01T12:29:38.622Z,220.00
2024-02-01T12:32:45.759Z,225.14
2024-02-01T12:35:52.348Z,228.22
2024-02-01T12:38:58.169Z,238.48
2024-02-01T12:42:09.226Z,226.80
2024-02-01T12:45:19.130Z,227.46
2024-02-01T12:48:26.091Z,237.26
2024-02-01T12:51:31.916Z,239.91
2024-02-01T12:54:39.922Z,239.05
2024-02-01T12:57:49.892Z,246.21
2024-02-01T13:00:57.120Z,247.19
2024-02-01T13:04:03.313Z,256.82
2024-02-01T13:07:13.397Z,271.31
2024-02-01T13:10:19.332Z,272.76
2024-02-01T13:13:28.523Z,269.23
2024-02-01T13:16:34.261Z,275.04
2024-02-01T13:19:42.189Z,265.33
2024-02-01T13:22:48.299Z,263.56
2024-02-01T13:25:55.797Z,280.21
2024-02-01T13:29:04.440Z,281.65
2024-02-01T13:32:11.308Z,293.20
2024-02-01T13:35:17.438Z,285.87
2024-02-01T13:38:27.764Z,271.94
2024-02-01T13:41:33.718Z,271.01
2024-02-01T13:44:43.046Z,281.41
2024-02-01T13:47:53.370Z,290.52
2024-02-01T13:51:05.137Z,304.48
2024-02-01T13:54:11.328Z,296.99
2024-02-01T13:57:18.023Z,304.24
2024-02-01T14:00:30.015Z,320.54
2024-02-01T14:03:36.831Z,393.28
2024-02-01T14:06:42.635Z,587.32
2024-02-01T14:09:49.106Z,383.75
2024-02-01T14:12:54.882Z,286.69
2024-02-01T14:16:04.670Z,276.62
2024-02-01T14:19:10.566Z,288.64
2024-02-01T14:22:17.495Z,340.92
2024-02-01T14:25:26.175Z,295.54
2024-02-01T14:28:33.232Z,337.64
2024-02-01T14:31:41.824Z,321.54
2024-02-01T14:34:49.044Z,297.91
2024-02-01T14:37:56.699Z,282.44
2024-02-01T14:41:03.565Z,296.08
2024-02-01T14:44:09.500Z,300.72
2024-02-01T14:47:18.652Z,267.47
2024-02-01T14:50:24.313Z,403.73
2024-02-01T14:53:30.854Z,311.87
2024-02-01T14:56:37.205Z,276.59
2024-02-01T14:59:43.778Z,360.58
2024-02-01T15:02:53.369Z,596.08
2024-02-01T15:06:00.189Z,403.57
2024-02-01T15:09:08.242Z,560.56
2024-02-01T15:12:15.153Z,222.25
2024-02-01T15:15:22.857Z,279.38
2024-02-01T15:18:33.584Z,745.58
2024-02-01T15:21:40.990Z,1211.47
2024-02-01T15:24:47.487Z,2649.07
2024-02-01T15:27:56.032Z,2024.87
2024-02-01T15:31:03.598Z,1956.60
2024-02-01T15:34:17.056Z,1474.55
2024-02-01T15:37:23.871Z,1188.39
2024-02-01T15:40:29.958Z,1033.21
2024-02-01T15:43:37.651Z,588.03
2024-02-01T15:46:44.495Z,1481.18
2024-02-01T15:49:57.346Z,685.77
2024-02-01T15:53:03.761Z,570.34
2024-02-01T15:56:11.072Z,580.57
2024-02-01T15:59:16.773Z,685.73
2024-02-01T16:02:23.285Z,310.04
2024-02-01T16:06:05.497Z,257.92
2024-02-01T16:09:14.378Z,227.28
2024-02-01T16:12:23.534Z,209.72
2024-02-01T16:15:41.205Z,217.29
2024-02-01T16:18:47.315Z,180.85
2024-02-01T16:21:57.190Z,171.92
2024-02-01T16:25:03.339Z,166.83
2024-02-01T16:28:10.959Z,225.03
2024-02-01T16:31:19.624Z,1320.02
2024-02-01T16:34:47.328Z,927.93
2024-02-01T16:37:55.714Z,823.00
2024-02-01T16:41:02.762Z,258.70
2024-02-01T16:44:10.074Z,192.81
2024-02-01T16:47:29.482Z,206.15
2024-02-01T16:50:49.944Z,228.79
2024-02-01T16:53:59.257Z,237.60
2024-02-01T16:57:08.752Z,258.30
2024-02-01T17:00:18.978Z,277.00
2024-02-01T17:03:29.016Z,230.21
2024-02-01T17:06:38.311Z,223.20
2024-02-01T17:09:46.827Z,324.68
2024-02-01T17:12:53.390Z,341.28
2024-02-01T17:15:59.711Z,295.97
2024-02-01T17:19:06.836Z,332.51
2024-02-01T17:22:24.744Z,270.52
2024-02-01T17:26:20.552Z,218.34
2024-02-01T17:29:30.483Z,196.93
2024-02-01T17:32:39.827Z,222.71
2024-02-01T17:35:45.695Z,444.82
2024-02-01T17:38:53.288Z,334.04
2024-02-01T17:42:06.690Z,256.88
2024-02-01T17:45:40.849Z,186.53
2024-02-01T17:49:01.244Z,166.60
2024-02-01T17:52:27.359Z,177.09
2024-02-01T17:55:56.988Z,202.62
2024-02-01T17:59:08.960Z,206.33
2024-02-01T18:02:25.570Z,197.31
2024-02-01T18:05:35.549Z,249.67
2024-02-01T18:08:45.769Z,229.02
2024-02-01T18:11:54.987Z,193.93
2024-02-01T18:15:05.815Z,189.65
2024-02-01T18:18:14.394Z,178.16
2024-02-01T18:21:24.415Z,204.47
2024-02-01T18:24:43.573Z,210.83
2024-02-01T18:27:53.130Z,194.25
2024-02-01T18:31:05.177Z,191.64
2024-02-01T18:34:32.242Z,230.57
2024-02-01T18:37:38.902Z,215.11
2024-02-01T18:40:52.648Z,209.41
2024-02-01T18:44:25.812Z,249.56
2024-02-01T18:47:41.770Z,239.01
2024-02-01T18:50:49.093Z,210.00
2024-02-01T18:53:59.782Z,192.66
2024-02-01T18:57:12.463Z,317.79
2024-02-01T19:00:44.850Z,261.71
2024-02-01T19:04:17.158Z,206.90
2024-02-01T19:07:23.269Z,227.27
2024-02-01T19:10:44.947Z,201.59
2024-02-01T19:14:04.435Z,244.84
2024-02-01T19:17:27.614Z,250.99
2024-02-01T19:20:36.018Z,228.19
2024-02-01T19:23:43.415Z,172.28
2024-02-01T19:26:50.590Z,158.02
2024-02-01T19:29:57.419Z,136.48
2024-02-01T19:33:05.577Z,156.24
2024-02-01T19:36:33.855Z,156.69
2024-02-01T19:39:42.086Z,152.12
2024-02-01T19:42:50.304Z,147.62
2024-02-01T19:45:56.177Z,147.80
2024-02-01T19:49:03.197Z,124.88
2024-02-01T19:52:11.823Z,140.13
2024-02-01T19:55:29.199Z,151.60
2024-02-01T19:58:35.090Z,131.27
2024-02-01T20:01:41.808Z,120.79
2024-02-01T20:04:47.996Z,117.61
2024-02-01T20:07:57.298Z,123.02
2024-02-01T20:11:03.885Z,127.35
2024-02-01T20:14:13.012Z,147.50
2024-02-01T20:17:20.708Z,201.66
2024-02-01T20:20:27.745Z,154.80
2024-02-01T20:23:36.967Z,165.87
2024-02-01T20:26:44.409Z,153.17
2024-02-01T20:29:52.109Z,154.35
2024-02-01T20:33:02.923Z,160.78
2024-02-01T20:36:31.077Z,144.95
2024-02-01T20:39:44.037Z,195.42
2024-02-01T20:42:49.866Z,229.81
2024-02-01T20:45:59.663Z,166.83
2024-02-01T20:49:07.372Z,157.55
2024-02-01T20:52:23.919Z,146.21
2024-02-01T20:55:35.357Z,133.37
2024-02-01T20:58:58.119Z,127.09
2024-02-01T21:02:04.937Z,148.80
2024-02-01T21:05:37.032Z,129.00
2024-02-01T21:08:43.968Z,130.19
2024-02-01T21:11:56.187Z,136.11
2024-02-01T21:15:02.084Z,133.16
2024-02-01T21:18:16.262Z,152.18
2024-02-01T21:21:23.725Z,157.27
2024-02-01T21:24:31.196Z,125.04
2024-02-01T21:27:40.074Z,137.09
2024-02-01T21:30:49.137Z,116.40
2024-02-01T21:33:58.243Z,103.44
2024-02-01T21:37:12.564Z,89.35
2024-02-01T21:40:24.029Z,90.61
2024-02-01T21:43:34.697Z,90.68
2024-02-01T21:46:40.895Z,91.05
2024-02-01T21:49:47.757Z,88.44
2024-02-01T21:52:56.014Z,97.08
2024-02-01T21:56:02.837Z,90.71
2024-02-01T21:59:16.261Z,78.72
2024-02-01T22:02:23.266Z,82.20
2024-02-01T22:05:29.237Z,80.64
2024-02-01T22:08:36.180Z,88.03
2024-02-01T22:11:42.440Z,90.55
2024-02-01T22:14:51.799Z,100.91
2024-02-01T22:17:57.679Z,91.87
2024-02-01T22:21:04.382Z,76.85
2024-02-01T22:24:10.830Z,81.21
2024-02-01T22:27:18.085Z,86.90
2024-02-01T22:30:27.826Z,85.52
2024-02-01T22:33:34.777Z,83.01
2024-02-01T22:36:40.572Z,81.57
2024-02-01T22:39:47.350Z,81.18
2024-02-01T22:42:53.229Z,82.83
2024-02-01T22:46:02.601Z,71.88
2024-02-01T22:49:08.476Z,69.58
2024-02-01T22:52:16.070Z,67.20
2024-02-01T22:55:21.954Z,65.08
2024-02-01T22:58:28.725Z,61.69
2024-02-01T23:01:37.207Z,67.88
2024-02-01T23:04:44.181Z,75.78
2024-02-01T23:07:50.664Z,70.16
2024-02-01T23:10:58.303Z,69.21
2024-02-01T23:14:04.754Z,73.95
2024-02-01T23:17:13.965Z,71.29
2024-02-01T23:20:21.130Z,72.92
2024-02-01T23:23:28.635Z,88.33
2024-02-01T23:26:36.605Z,68.01
2024-02-01T23:29:45.433Z,76.92
2024-02-01T23:32:54.292Z,80.22
2024-02-01T23:36:01.807Z,85.23
2024-02-01T23:39:08.870Z,79.24
2024-02-01T23:42:15.660Z,81.33
2024-02-01T23:45:22.684Z,71.46
2024-02-01T23:48:32.489Z,66.35
2024-02-01T23:51:39.067Z,89.99
2024-02-01T23:54:46.282Z,137.82
2024-02-01T23:57:52.534Z,69.36
